IST,Max TemperatureF,Mean TemperatureF,Min TemperatureF,Max Dew PointF,MeanDew PointF,Min DewpointF,Max Humidity, Mean Humidity, Min Humidity, Max Sea Level PressureIn, Mean Sea Level PressureIn, Min Sea Level PressureIn, Max VisibilityMiles, Mean VisibilityMiles, Min VisibilityMiles, Max Wind SpeedMPH, Mean Wind SpeedMPH, Max Gust SpeedMPH,PrecipitationIn, CloudCover, Events, WindDirDegrees
2013-3-1,79,68,57,46,40,30,59,37,11,30.15,30.08,30.01,4,2,1,9,6,,0.00,2,,355
2013-3-2,85,68,52,44,40,37,67,37,14,30.12,30.06,29.98,4,2,1,10,3,,0.00,1,,315
2013-3-3,88,73,58,47,35,27,44,24,7,30.12,30.05,29.92,4,2,1,7,4,,0.00,,,325
2013-3-4,89,72,56,46,36,21,52,29,6,30.09,30.02,29.93,4,2,1,7,2,,0.00,1,,228
2013-3-5,89,76,62,46,40,32,45,27,8,30.12,30.03,29.92,4,2,1,9,4,,0.00,,,109
2013-3-6,91,75,59,52,41,28,55,30,7,30.12,30.03,29.91,4,2,1,9,2,,0.00,,,247
2013-3-7,89,75,61,62,40,27,68,31,5,30.12,30.02,29.91,3,2,1,8,2,,0.00,1,,350
2013-3-8,91,76,61,50,39,27,55,27,5,30.09,30.01,29.88,3,2,1,13,2,,0.00,,,139
2013-3-9,94,78,63,44,38,32,42,22,6,30.01,29.89,29.72,3,2,1,13,4,,0.00,,,256
2013-3-10,91,80,68,41,35,27,31,19,6,29.89,29.81,29.71,2,2,1,16,3,21,0.00,,,297
2013-3-11,89,74,59,45,33,23,42,20,4,29.98,29.89,29.80,3,2,1,8,3,,0.00,2,,119
2013-3-12,91,78,64,50,43,34,49,28,8,29.98,29.90,29.80,3,2,1,9,2,,0.00,1,,351
2013-3-13,91,80,69,54,48,41,53,34,17,29.98,29.88,29.75,3,2,1,12,6,,0.00,2,,106
2013-3-14,86,77,68,56,48,39,64,35,15,30.01,29.91,29.76,2,2,1,10,6,22,0.00,3,,27
2013-3-15,89,77,65,57,42,32,73,31,8,30.12,30.02,29.91,3,2,1,9,5,,0.00,1,,65
2013-3-16,89,76,62,52,45,38,59,33,9,30.12,30.02,29.89,3,2,1,10,6,,0.00,2,,100
2013-3-17,89,76,63,52,46,33,63,36,7,30.09,30.01,29.88,3,2,1,7,2,,0.00,2,,136
2013-3-18,95,80,64,54,46,29,68,34,4,29.98,29.90,29.78,3,2,1,12,2,,0.00,1,,267
2013-3-19,95,80,64,48,40,28,49,25,9,30.12,29.85,29.76,3,2,1,12,2,,0.00,,,291
2013-3-20,96,82,69,54,45,34,53,27,7,29.95,29.85,29.73,3,2,1,12,4,,0.00,3,,123
2013-3-21,94,81,68,53,45,36,52,28,9,29.95,29.85,29.73,2,2,1,8,2,,0.00,1,,89
2013-3-22,94,80,66,52,46,37,56,28,8,29.86,29.77,29.64,4,2,1,10,3,,0.00,4,,110
2013-3-23,95,84,72,52,45,37,41,25,8,29.86,29.78,29.65,4,3,1,10,6,,0.00,3,Rain-Thunderstorm,113
2013-3-24,93,82,72,52,45,39,41,26,14,29.98,29.88,29.75,3,2,1,13,7,,0.00,2,,287
2013-3-25,87,78,70,57,45,34,60,33,9,30.01,29.91,29.77,3,2,1,15,7,25,0.00,1,,359
2013-3-26,89,78,67,52,42,32,56,28,8,29.92,29.83,29.73,4,2,1,8,5,,0.00,3,,311
2013-3-27,89,78,66,47,43,36,49,29,16,29.92,29.84,29.76,2,2,1,7,2,,0.00,5,,128
2013-3-28,94,82,69,63,48,41,73,33,12,29.89,29.82,29.69,3,2,1,69,7,,0.12,3,Rain-Thunderstorm,143
2013-3-29,89,77,65,61,54,35,83,48,17,29.89,29.83,29.75,2,2,1,14,4,,0.00,2,Thunderstorm,304
2013-3-30,88,76,65,59,53,48,78,44,18,29.92,29.84,29.72,2,2,1,10,3,23,0.00,2,,297
2013-3-31,90,78,65,54,49,45,60,35,14,30.09,29.85,29.74,3,2,2,10,3,,0.00,2,,191